Worth, Illinois
Current Conditions -  °F | °C
As of 12:53 PM on Tuesday 27 Jan 2015 (Local Time) from KMDW Reporting Station
Few Clouds Few Clouds  
Wind Chill: 26°   Ceiling: Unl
Heat Index: 32°   Visibility: 10mi
Dew Point: 19°   Wind: 6mph
Humidity: 59%   Direction: 50°NE
Pressure: 30.17"   Gusts: NA
Location:  41.69°N, 87.8°W
Report Text: KMDW 271853Z 05005KT 10SM FEW030 00/M07 A3017 RMK AO2 SLP229 T00001072
Loading
Personal Weather Stations






























Interactive Weather Map New forecast layout! Learn more

10-Day Weather Forecast

Advertisements
Track Severe Weather on mobile